Ayden, NC

8:09 PM EDT on October 21, 2014 (GMT -0400)
Sunrise Park | Change Station
CLOSE
Current Station
Personal Weather Station
Location: Ayden, NC
Elevation: 49 ft
Nearby Weather Stations

Elev 49 ft 35.47 °N, 77.41 °W | Updated 5 minutes ago

Partly Cloudy
Partly Cloudy
60.8 °F
Feels Like 60.8 °F
N
0.0
Wind Variable Wind from West

Today
High -- | Low -- °F
--% Chance of Precip.
Yesterday
High -- | Low -- °F
Precip. -- in
7:21 AM 6:26 PM
Waning Crescent, 4% visible
Pressure 29.88 in
Visibility 10.0 miles
Clouds Scattered Clouds 7500 ft
Scattered Clouds 8500 ft
Mostly Cloudy 11000 ft
Dew Point 57 °F
Humidity 86%
Rainfall 0.00 in
Snow Depth Not available.
UV 0 out of 12
Pollen 2.00 out of 12
Air Quality Not available.
Flu Activity Sporadic
METAR KPGV 212350Z AUTO 00000KT 10SM SCT075 SCT085 BKN110 17/15 A2988 RMK AO2

More Conditions Fewer Conditions

Pressure 29.88 in
Visibility 10.0 miles
Clouds Scattered Clouds 7500 ft
Scattered Clouds 8500 ft
Mostly Cloudy 11000 ft
Dew Point 57 °F
Humidity 86%
Rainfall 0.00 in
Snow Depth Not available.
UV 0 out of 12
Pollen 2.00 out of 12
Air Quality Not available.
Flu Activity Sporadic
METAR KPGV 212350Z AUTO 00000KT 10SM SCT075 SCT085 BKN110 17/15 A2988 RMK AO2

More Conditions Fewer Conditions

10-Day Weather Forecast

Almanac

Astronomy

Oct. 21, 2014 Rise Set
Actual Time 7:21 AM EDT 6:26 PM EDT
Civil Twilight 6:55 AM EDT 6:52 PM EDT
Nautical Twilight 6:25 AM EDT 7:22 PM EDT
Astronomical Twilight 5:56 AM EDT 7:51 PM EDT
Moon 5:08 AM EDT (10/21) 5:16 PM EDT (10/21)
Length of Visible Light 11h 57m
Length of Day
11h 05m
Tomorrow will be 2m 6s shorter.
Waning Crescent, 4% of the Moon is Illuminated
Today
Waning Crescent
Oct 23
New
Oct 30
First Quarter
Nov 6
Full
Nov 14
Last Quarter

Today's Extremes

State Highs State Lows

Community

WunderPhotos

Upload Photos

1,763,824 photos uploaded!

Nearby

Snow Depth

Station Depth Elevation
No new snow has been reported.

Earthquake Activity

City Distance Mag. Time & Date
No recent earthquake activity has been reported nearby.
Minimum magnitude displayed is 2.5.

Coastal Water Temperatures

Place Temperature
No Stations Reporting

Nearby Weather Stations